createdAt,value
2017-09-04T00:00:40.337Z,77.90
2017-09-04T00:03:07.893Z,78.00
2017-09-04T00:05:35.550Z,78.10
2017-09-04T00:08:03.514Z,78.00
2017-09-04T00:10:31.067Z,77.90
2017-09-04T00:12:58.617Z,77.90
2017-09-04T00:15:27.398Z,77.80
2017-09-04T00:17:55.005Z,77.90
2017-09-04T00:20:22.554Z,78.00
2017-09-04T00:22:50.514Z,78.00
2017-09-04T00:25:18.064Z,78.00
2017-09-04T00:27:45.601Z,78.00
2017-09-04T00:30:13.193Z,78.00
2017-09-04T00:32:40.846Z,78.00
2017-09-04T00:35:08.442Z,78.10
2017-09-04T00:37:36.039Z,78.30
2017-09-04T00:40:03.621Z,78.30
2017-09-04T00:42:31.204Z,78.40
2017-09-04T00:44:58.799Z,78.50
2017-09-04T00:47:26.342Z,79.40
2017-09-04T00:49:54.363Z,78.70
2017-09-04T00:52:21.921Z,78.90
2017-09-04T00:54:49.476Z,78.90
2017-09-04T00:57:17.215Z,78.90
2017-09-04T00:59:45.001Z,79.00
2017-09-04T01:02:12.550Z,79.00
2017-09-04T01:04:40.295Z,79.10
2017-09-04T01:07:07.837Z,79.10
2017-09-04T01:09:35.390Z,79.20
2017-09-04T01:12:03.426Z,80.00
2017-09-04T01:14:30.978Z,79.40
2017-09-04T01:16:58.521Z,79.40
2017-09-04T01:19:26.161Z,79.40
2017-09-04T01:21:53.747Z,79.50
2017-09-04T01:24:21.301Z,79.50
2017-09-04T01:26:49.033Z,79.60
2017-09-04T01:29:16.591Z,79.50
2017-09-04T01:31:44.280Z,79.50
2017-09-04T01:34:11.824Z,79.60
2017-09-04T01:36:39.373Z,79.80
2017-09-04T01:39:06.969Z,79.80
2017-09-04T01:41:34.515Z,79.90
2017-09-04T01:44:02.077Z,80.00
2017-09-04T01:46:29.954Z,80.00
2017-09-04T01:48:57.509Z,80.00
2017-09-04T01:51:25.068Z,80.10
2017-09-04T01:53:52.730Z,80.10
2017-09-04T01:56:20.318Z,80.20
2017-09-04T01:58:47.906Z,80.30
2017-09-04T02:01:16.310Z,80.20
2017-09-04T02:03:43.862Z,80.40
2017-09-04T02:06:11.415Z,80.30
2017-09-04T02:08:38.995Z,80.30
2017-09-04T02:11:06.534Z,80.30
2017-09-04T02:13:34.095Z,80.30
2017-09-04T02:16:02.153Z,80.30
2017-09-04T02:18:29.699Z,80.30
2017-09-04T02:20:57.245Z,80.40
2017-09-04T02:23:24.837Z,80.40
2017-09-04T02:25:52.790Z,80.50
2017-09-04T02:28:20.348Z,80.60
2017-09-04T02:30:47.894Z,80.60
2017-09-04T02:33:15.749Z,80.60
2017-09-04T02:35:43.333Z,80.60
2017-09-04T02:38:10.880Z,80.70
2017-09-04T02:40:38.479Z,80.60
2017-09-04T02:43:06.073Z,80.70
2017-09-04T02:45:33.629Z,80.70
2017-09-04T02:48:01.382Z,80.80
2017-09-04T02:50:28.929Z,80.80
2017-09-04T02:52:56.602Z,80.80
2017-09-04T02:55:24.517Z,80.90
2017-09-04T02:57:52.078Z,80.90
2017-09-04T03:00:19.626Z,80.90
2017-09-04T03:02:48.244Z,81.10
2017-09-04T03:05:15.805Z,81.10
2017-09-04T03:07:43.351Z,81.20
2017-09-04T03:10:10.993Z,81.10
2017-09-04T03:12:38.543Z,81.20
2017-09-04T03:15:06.139Z,81.10
2017-09-04T03:17:33.748Z,81.20
2017-09-04T03:20:01.865Z,81.20
2017-09-04T03:22:29.417Z,81.30
2017-09-04T03:24:56.962Z,81.30
2017-09-04T03:27:25.368Z,81.30
2017-09-04T03:29:52.911Z,81.40
2017-09-04T03:32:20.456Z,81.40
2017-09-04T03:34:48.043Z,81.40
2017-09-04T03:37:15.623Z,81.50
2017-09-04T03:39:43.181Z,81.50
2017-09-04T03:42:10.798Z,81.50
2017-09-04T03:44:38.355Z,81.50
2017-09-04T03:47:05.909Z,81.50
2017-09-04T03:49:34.530Z,81.60
2017-09-04T03:52:02.099Z,81.70
2017-09-04T03:54:29.665Z,81.60
2017-09-04T03:56:57.269Z,81.70
2017-09-04T03:59:24.869Z,81.70
2017-09-04T04:01:52.433Z,81.70
2017-09-04T04:04:25.530Z,81.80
2017-09-04T04:06:53.077Z,81.80
2017-09-04T04:09:20.718Z,81.80
2017-09-04T04:11:48.277Z,81.70
2017-09-04T04:14:16.134Z,81.70
2017-09-04T04:16:43.729Z,81.70
2017-09-04T04:19:11.271Z,81.80
2017-09-04T04:21:38.922Z,81.90
2017-09-04T04:24:06.519Z,82.00
2017-09-04T04:26:34.121Z,82.10
2017-09-04T04:29:01.678Z,82.00
2017-09-04T04:31:29.280Z,82.10
2017-09-04T04:33:56.834Z,82.20
2017-09-04T04:36:24.393Z,82.20
2017-09-04T04:38:56.906Z,82.20
2017-09-04T04:41:24.501Z,82.20
2017-09-04T04:43:52.057Z,82.30
2017-09-04T04:46:19.832Z,82.50
2017-09-04T04:48:47.391Z,82.50
2017-09-04T04:51:14.949Z,82.60
2017-09-04T04:53:42.549Z,82.50
2017-09-04T04:56:10.137Z,82.50
2017-09-04T04:58:37.726Z,82.50
2017-09-04T05:01:05.274Z,82.60
2017-09-04T05:03:33.206Z,82.70
2017-09-04T05:06:01.030Z,82.70
2017-09-04T05:08:28.586Z,82.60
2017-09-04T05:10:56.172Z,82.60
2017-09-04T05:13:23.781Z,82.60
2017-09-04T05:15:51.338Z,82.70
2017-09-04T05:18:18.895Z,82.70
2017-09-04T05:20:46.859Z,82.70
2017-09-04T05:23:14.779Z,82.80
2017-09-04T05:25:46.011Z,82.70
2017-09-04T05:28:13.562Z,82.80
2017-09-04T05:30:42.419Z,82.80
2017-09-04T05:33:09.976Z,82.80
2017-09-04T05:35:37.892Z,82.80
2017-09-04T05:38:05.447Z,82.90
2017-09-04T05:40:33.007Z,82.80
2017-09-04T05:43:00.629Z,82.80
2017-09-04T05:45:28.688Z,83.40
2017-09-04T05:47:56.317Z,82.80
2017-09-04T05:50:23.880Z,82.80
2017-09-04T05:52:51.898Z,82.80
2017-09-04T05:55:19.489Z,82.80
2017-09-04T05:57:47.817Z,82.70
2017-09-04T06:00:15.437Z,82.60
2017-09-04T06:02:42.996Z,82.60
2017-09-04T06:05:13.950Z,82.70
2017-09-04T06:07:41.527Z,82.70
2017-09-04T06:10:09.085Z,82.80
2017-09-04T06:12:36.689Z,82.80
2017-09-04T06:15:04.295Z,83.00
2017-09-04T06:17:31.832Z,83.00
2017-09-04T06:19:59.528Z,82.90
2017-09-04T06:22:27.096Z,82.90
2017-09-04T06:24:57.756Z,82.80
2017-09-04T06:27:25.311Z,82.70
2017-09-04T06:29:54.500Z,82.60
2017-09-04T06:32:22.146Z,82.40
2017-09-04T06:34:49.690Z,82.20
2017-09-04T06:37:17.934Z,82.10
2017-09-04T06:39:45.532Z,82.10
2017-09-04T06:42:13.073Z,82.20
2017-09-04T06:44:40.702Z,82.10
2017-09-04T06:47:08.312Z,82.20
2017-09-04T06:49:36.209Z,82.20
2017-09-04T06:52:03.756Z,82.20
2017-09-04T06:54:31.294Z,82.10
2017-09-04T06:56:58.898Z,82.10
2017-09-04T06:59:26.853Z,82.10
2017-09-04T07:01:54.392Z,82.00
2017-09-04T07:04:21.938Z,82.10
2017-09-04T07:06:49.525Z,82.10
2017-09-04T07:09:17.606Z,82.00
2017-09-04T07:11:45.172Z,82.00
2017-09-04T07:14:12.719Z,81.80
2017-09-04T07:16:44.174Z,81.50
2017-09-04T07:19:11.726Z,81.50
2017-09-04T07:21:39.306Z,81.20
2017-09-04T07:24:07.173Z,81.20
2017-09-04T07:26:35.177Z,81.10
2017-09-04T07:29:02.721Z,80.90
2017-09-04T07:31:30.350Z,80.80
2017-09-04T07:33:58.499Z,80.70
2017-09-04T07:36:26.149Z,80.40
2017-09-04T07:38:54.166Z,80.30
2017-09-04T07:41:21.778Z,80.10
2017-09-04T07:43:49.327Z,80.10
2017-09-04T07:46:16.926Z,80.00
2017-09-04T07:48:44.480Z,80.00
2017-09-04T07:51:12.073Z,80.00
2017-09-04T07:53:39.691Z,80.00
2017-09-04T07:56:07.254Z,79.90
2017-09-04T07:58:36.408Z,79.90
2017-09-04T08:01:03.971Z,79.70
2017-09-04T08:03:31.549Z,79.40
2017-09-04T08:05:59.577Z,79.10
2017-09-04T08:08:27.126Z,79.00
2017-09-04T08:10:54.680Z,78.80
2017-09-04T08:13:22.374Z,78.50
2017-09-04T08:15:52.542Z,78.40
2017-09-04T08:18:20.130Z,78.20
2017-09-04T08:20:48.129Z,78.00
2017-09-04T08:23:15.741Z,77.80
2017-09-04T08:25:43.298Z,77.50
2017-09-04T08:28:10.896Z,76.90
2017-09-04T08:30:38.471Z,76.70
2017-09-04T08:33:06.158Z,76.30
2017-09-04T08:35:33.715Z,76.20
2017-09-04T08:38:01.297Z,75.70
2017-09-04T08:40:28.845Z,75.50
2017-09-04T08:42:56.521Z,75.10
2017-09-04T08:45:24.058Z,74.60
2017-09-04T08:47:51.623Z,74.10
2017-09-04T08:50:20.942Z,73.80
2017-09-04T08:52:48.487Z,73.70
2017-09-04T08:55:16.024Z,73.10
2017-09-04T08:57:43.682Z,73.00
2017-09-04T09:00:11.384Z,72.40
2017-09-04T09:02:38.938Z,71.90
2017-09-04T09:05:06.493Z,71.60
2017-09-04T09:07:35.014Z,71.20
2017-09-04T09:10:02.554Z,71.00
2017-09-04T09:12:30.098Z,70.80
2017-09-04T09:14:57.677Z,70.70
2017-09-04T09:17:25.429Z,70.60
2017-09-04T09:19:52.984Z,70.20
2017-09-04T09:22:21.627Z,69.60
2017-09-04T09:24:49.256Z,69.60
2017-09-04T09:27:16.801Z,69.30
2017-09-04T09:29:44.766Z,69.10
2017-09-04T09:32:12.315Z,68.90
2017-09-04T09:34:41.502Z,68.60
2017-09-04T09:37:09.615Z,68.50
2017-09-04T09:39:37.153Z,68.30
2017-09-04T09:42:04.698Z,67.80
2017-09-04T09:44:32.411Z,67.50
2017-09-04T09:46:59.962Z,67.50
2017-09-04T09:49:27.518Z,67.30
2017-09-04T09:51:55.146Z,67.00
2017-09-04T09:54:22.745Z,66.50
2017-09-04T09:56:50.285Z,66.10
2017-09-04T09:59:17.955Z,65.80
2017-09-04T10:01:45.505Z,65.80
2017-09-04T10:04:13.696Z,65.60
2017-09-04T10:06:41.249Z,65.30
2017-09-04T10:09:08.841Z,65.10
2017-09-04T10:11:36.393Z,64.60
2017-09-04T10:14:05.246Z,64.40
2017-09-04T10:16:32.802Z,64.40
2017-09-04T10:19:00.393Z,64.40
2017-09-04T10:21:27.942Z,64.30
2017-09-04T10:23:55.535Z,63.90
2017-09-04T10:26:23.436Z,63.80
2017-09-04T10:31:27.857Z,62.80
2017-09-04T10:33:55.422Z,63.10
2017-09-04T10:36:23.457Z,62.10
2017-09-04T10:38:51.018Z,62.10
2017-09-04T10:41:18.572Z,61.30
2017-09-04T10:43:46.509Z,61.00
2017-09-04T10:46:14.058Z,60.50
2017-09-04T10:48:41.612Z,60.30
2017-09-04T10:51:09.189Z,60.10
2017-09-04T10:53:36.838Z,60.00
2017-09-04T10:56:04.436Z,59.80
2017-09-04T10:58:31.989Z,59.50
2017-09-04T11:00:59.642Z,59.20
2017-09-04T11:03:27.210Z,58.90
2017-09-04T11:05:54.796Z,58.70
2017-09-04T11:08:26.248Z,58.40
2017-09-04T11:10:53.807Z,58.20
2017-09-04T11:13:21.413Z,58.00
2017-09-04T11:15:48.969Z,57.80
2017-09-04T11:18:16.682Z,57.80
2017-09-04T11:20:46.092Z,57.70
2017-09-04T11:23:13.942Z,57.50
2017-09-04T11:25:41.502Z,57.40
2017-09-04T11:28:09.121Z,57.70
2017-09-04T11:30:36.677Z,57.70
2017-09-04T11:33:04.497Z,57.50
2017-09-04T11:35:32.054Z,56.80
2017-09-04T11:38:00.264Z,57.00
2017-09-04T11:40:27.840Z,57.20
2017-09-04T11:42:55.381Z,56.50
2017-09-04T11:45:22.967Z,56.40
2017-09-04T11:47:50.569Z,56.50
2017-09-04T11:50:18.105Z,56.10
2017-09-04T11:52:45.692Z,55.60
2017-09-04T11:55:13.235Z,55.10
2017-09-04T11:57:40.828Z,54.90
2017-09-04T12:00:08.368Z,54.70
2017-09-04T12:02:36.090Z,54.60
2017-09-04T12:05:03.670Z,54.30
2017-09-04T12:07:31.222Z,53.90
2017-09-04T12:09:58.804Z,53.70
2017-09-04T12:12:26.353Z,53.20
2017-09-04T12:14:53.903Z,53.30
2017-09-04T12:17:22.253Z,53.40
2017-09-04T12:19:49.811Z,53.40
2017-09-04T12:22:17.401Z,53.30
2017-09-04T12:24:44.989Z,53.30
2017-09-04T12:27:12.534Z,52.80
2017-09-04T12:29:40.114Z,52.40
2017-09-04T12:32:07.665Z,52.30
2017-09-04T12:34:35.273Z,52.30
2017-09-04T12:37:02.826Z,52.10
2017-09-04T12:39:30.410Z,51.90
2017-09-04T12:41:57.956Z,51.80
2017-09-04T12:44:25.546Z,52.10
2017-09-04T12:46:53.089Z,52.00
2017-09-04T12:49:20.625Z,51.70
2017-09-04T12:51:48.599Z,51.30
2017-09-04T12:54:16.162Z,51.10
2017-09-04T12:56:43.803Z,51.30
2017-09-04T12:59:16.293Z,51.30
2017-09-04T13:01:43.835Z,51.50
2017-09-04T13:04:11.387Z,51.80
2017-09-04T13:06:39.581Z,52.10
2017-09-04T13:09:07.129Z,52.30
2017-09-04T13:11:40.398Z,52.20
2017-09-04T13:14:22.934Z,52.30
2017-09-04T13:16:56.298Z,52.70
2017-09-04T13:19:29.482Z,52.70
2017-09-04T13:22:02.693Z,52.40
2017-09-04T13:24:45.897Z,52.30
2017-09-04T13:27:19.228Z,52.30
2017-09-04T13:29:52.739Z,51.80
2017-09-04T13:32:26.049Z,51.20
2017-09-04T13:34:59.371Z,50.70
2017-09-04T13:37:32.562Z,50.50
2017-09-04T13:40:05.738Z,50.30
2017-09-04T13:42:38.979Z,50.30
2017-09-04T13:45:28.685Z,50.40
2017-09-04T13:48:01.920Z,50.60
2017-09-04T13:50:35.109Z,50.70
2017-09-04T13:53:19.429Z,50.70
2017-09-04T13:55:52.750Z,50.80
2017-09-04T13:58:37.162Z,50.80
2017-09-04T14:01:10.381Z,50.90
2017-09-04T14:03:43.990Z,50.80
2017-09-04T14:06:30.250Z,50.80
2017-09-04T14:09:14.550Z,50.50
2017-09-04T14:12:01.941Z,50.40
2017-09-04T14:14:49.240Z,50.00
2017-09-04T14:17:22.766Z,49.90
2017-09-04T14:19:50.316Z,49.80
2017-09-04T14:22:18.042Z,49.80
2017-09-04T14:24:45.602Z,49.60
2017-09-04T14:27:17.123Z,49.60
2017-09-04T14:29:44.672Z,49.60
2017-09-04T14:32:12.252Z,49.50
2017-09-04T14:34:39.840Z,49.10
2017-09-04T14:37:07.399Z,48.70
2017-09-04T14:39:35.092Z,48.70
2017-09-04T14:42:02.654Z,48.60
2017-09-04T14:44:30.522Z,48.70
2017-09-04T14:47:12.959Z,48.80
2017-09-04T14:49:44.155Z,49.00
2017-09-04T14:52:11.703Z,49.20
2017-09-04T14:54:39.357Z,49.60
2017-09-04T14:57:06.913Z,49.50
2017-09-04T14:59:34.509Z,50.00
2017-09-04T15:02:02.054Z,48.90
2017-09-04T15:04:29.721Z,48.80
2017-09-04T15:06:57.308Z,48.10
2017-09-04T15:09:24.846Z,47.80
2017-09-04T15:11:52.433Z,47.90
2017-09-04T15:14:19.982Z,47.90
2017-09-04T15:16:47.840Z,48.10
2017-09-04T15:19:15.537Z,48.30
2017-09-04T15:21:43.089Z,48.50
2017-09-04T15:24:10.946Z,48.70
2017-09-04T15:26:38.749Z,48.90
2017-09-04T15:29:06.298Z,49.20
2017-09-04T15:31:34.157Z,49.50
2017-09-04T15:34:01.712Z,49.60
2017-09-04T15:36:29.269Z,49.70
2017-09-04T15:38:57.257Z,49.90
2017-09-04T15:41:24.814Z,50.10
2017-09-04T15:43:52.355Z,50.20
2017-09-04T15:46:20.239Z,50.60
2017-09-04T15:48:47.783Z,50.70
2017-09-04T15:51:15.336Z,50.90
2017-09-04T15:53:42.921Z,51.00
2017-09-04T15:56:11.931Z,51.10
2017-09-04T15:58:39.493Z,51.30
2017-09-04T16:01:07.051Z,51.90
2017-09-04T16:03:34.650Z,51.50
2017-09-04T16:06:17.073Z,51.70
2017-09-04T16:08:44.815Z,52.00
2017-09-04T16:11:12.441Z,52.20
2017-09-04T16:13:51.707Z,52.50
2017-09-04T16:16:34.039Z,52.70
2017-09-04T16:19:18.639Z,53.00
2017-09-04T16:22:01.061Z,53.10
2017-09-04T16:24:30.477Z,53.30
2017-09-04T16:27:02.213Z,53.80
2017-09-04T16:29:32.384Z,53.70
2017-09-04T16:32:01.170Z,54.00
2017-09-04T16:34:37.231Z,54.20
2017-09-04T16:37:06.298Z,54.40
2017-09-04T16:39:39.521Z,54.60
2017-09-04T16:42:08.973Z,54.80
2017-09-04T16:44:36.517Z,55.70
2017-09-04T16:47:04.119Z,55.40
2017-09-04T16:49:47.484Z,56.20
2017-09-04T16:52:26.127Z,55.80
2017-09-04T16:54:54.470Z,55.70
2017-09-04T16:57:26.928Z,55.80
2017-09-04T16:59:54.498Z,55.80
2017-09-04T17:02:22.141Z,56.00
2017-09-04T17:04:49.690Z,56.10
2017-09-04T17:07:17.546Z,56.30
2017-09-04T17:09:52.804Z,56.50
2017-09-04T17:12:37.243Z,56.30
2017-09-04T17:15:04.802Z,57.20
2017-09-04T17:17:32.555Z,56.70
2017-09-04T17:20:18.527Z,57.00
2017-09-04T17:22:47.571Z,57.10
2017-09-04T17:25:15.118Z,57.30
2017-09-04T17:27:43.185Z,57.40
2017-09-04T17:30:10.746Z,57.50
2017-09-04T17:32:38.298Z,57.60
2017-09-04T17:35:05.890Z,57.80
2017-09-04T17:37:33.509Z,57.90
2017-09-04T17:40:01.120Z,58.10
2017-09-04T17:42:28.875Z,58.30
2017-09-04T17:44:56.458Z,58.40
2017-09-04T17:47:24.055Z,58.60
2017-09-04T17:49:51.646Z,58.80
2017-09-04T17:52:20.441Z,59.00
2017-09-04T17:54:48.006Z,59.20
2017-09-04T17:57:15.749Z,59.30
2017-09-04T17:59:43.321Z,59.30
2017-09-04T18:02:10.917Z,59.30
2017-09-04T18:04:38.467Z,59.40
2017-09-04T18:07:06.129Z,59.50
2017-09-04T18:09:33.741Z,59.70
2017-09-04T18:12:01.301Z,59.80
2017-09-04T18:14:28.973Z,59.90
2017-09-04T18:16:56.535Z,60.10
2017-09-04T18:19:25.717Z,60.30
2017-09-04T18:21:53.282Z,60.70
2017-09-04T18:24:21.331Z,60.80
2017-09-04T18:26:48.885Z,60.90
2017-09-04T18:29:16.443Z,61.10
2017-09-04T18:31:44.293Z,61.30
2017-09-04T18:34:11.844Z,61.60
2017-09-04T18:36:39.378Z,62.00
2017-09-04T18:39:06.961Z,62.50
2017-09-04T18:41:34.511Z,62.90
2017-09-04T18:44:02.110Z,63.30
2017-09-04T18:46:33.563Z,63.70
2017-09-04T18:49:01.105Z,64.00
2017-09-04T18:51:28.650Z,64.30
2017-09-04T18:53:56.296Z,64.60
2017-09-04T18:56:23.844Z,64.90
2017-09-04T18:58:51.433Z,65.00
2017-09-04T19:01:18.982Z,65.40
2017-09-04T19:03:46.733Z,65.70
2017-09-04T19:06:14.277Z,66.10
2017-09-04T19:08:41.861Z,66.40
2017-09-04T19:11:09.405Z,66.60
2017-09-04T19:13:36.993Z,66.80
2017-09-04T19:16:09.744Z,67.10
2017-09-04T19:18:37.432Z,67.10
2017-09-04T19:21:04.974Z,67.30
2017-09-04T19:23:32.569Z,67.50
2017-09-04T19:26:00.153Z,67.80
2017-09-04T19:28:27.692Z,68.10
2017-09-04T19:30:55.326Z,68.30
2017-09-04T19:33:22.877Z,68.30
2017-09-04T19:35:50.813Z,68.50
2017-09-04T19:38:18.366Z,68.50
2017-09-04T19:40:45.917Z,68.70
2017-09-04T19:43:15.048Z,68.80
2017-09-04T19:45:42.585Z,68.90
2017-09-04T19:48:10.126Z,69.00
2017-09-04T19:50:37.733Z,69.20
2017-09-04T19:53:05.326Z,69.30
2017-09-04T19:55:32.882Z,69.20
2017-09-04T19:58:00.469Z,69.20
2017-09-04T20:00:28.011Z,69.20
2017-09-04T20:02:56.041Z,69.40
2017-09-04T20:05:23.850Z,69.50
2017-09-04T20:07:52.186Z,69.90
2017-09-04T20:10:20.514Z,69.90
2017-09-04T20:12:48.076Z,70.00
2017-09-04T20:15:15.645Z,70.10
2017-09-04T20:17:43.569Z,70.00
2017-09-04T20:20:11.154Z,70.10
2017-09-04T20:22:38.693Z,70.10
2017-09-04T20:25:06.642Z,70.10
2017-09-04T20:27:34.185Z,70.20
2017-09-04T20:30:01.761Z,70.10
2017-09-04T20:32:29.733Z,70.20
2017-09-04T20:34:57.276Z,70.20
2017-09-04T20:37:24.854Z,70.30
2017-09-04T20:39:52.433Z,70.30
2017-09-04T20:42:20.011Z,70.40
2017-09-04T20:44:48.387Z,70.90
2017-09-04T20:47:15.974Z,70.70
2017-09-04T20:49:43.983Z,71.10
2017-09-04T20:52:11.517Z,71.20
2017-09-04T20:54:39.057Z,71.40
2017-09-04T20:57:06.674Z,71.40
2017-09-04T20:59:34.253Z,71.50
2017-09-04T21:02:01.792Z,71.50
2017-09-04T21:04:29.380Z,71.30
2017-09-04T21:06:56.942Z,71.80
2017-09-04T21:09:24.798Z,71.80
2017-09-04T21:11:52.341Z,71.70
2017-09-04T21:14:19.890Z,71.70
2017-09-04T21:16:47.799Z,71.90
2017-09-04T21:19:15.730Z,71.90
2017-09-04T21:21:43.274Z,72.10
2017-09-04T21:24:10.841Z,72.10
2017-09-04T21:26:38.433Z,72.20
2017-09-04T21:29:06.026Z,72.20
2017-09-04T21:31:33.584Z,72.30
2017-09-04T21:34:01.230Z,72.40
2017-09-04T21:36:28.773Z,72.60
2017-09-04T21:38:56.724Z,72.70
2017-09-04T21:41:24.277Z,72.80
2017-09-04T21:43:51.818Z,73.00
2017-09-04T21:46:19.716Z,73.10
2017-09-04T21:48:47.683Z,73.20
2017-09-04T21:51:15.233Z,73.30
2017-09-04T21:53:42.781Z,73.40
2017-09-04T21:56:11.897Z,73.30
2017-09-04T21:58:39.451Z,73.50
2017-09-04T22:01:07.012Z,73.50
2017-09-04T22:03:34.741Z,73.50
2017-09-04T22:06:02.281Z,73.60
2017-09-04T22:08:30.631Z,73.90
2017-09-04T22:10:58.326Z,73.90
2017-09-04T22:13:25.911Z,74.00
2017-09-04T22:15:53.454Z,74.10
2017-09-04T22:18:21.329Z,74.10
2017-09-04T22:20:48.869Z,74.20
2017-09-04T22:23:16.449Z,74.40
2017-09-04T22:25:43.992Z,74.50
2017-09-04T22:28:11.574Z,74.60
2017-09-04T22:30:39.113Z,74.70
2017-09-04T22:33:07.038Z,74.90
2017-09-04T22:35:34.586Z,74.90
2017-09-04T22:38:02.178Z,75.00
2017-09-04T22:40:29.722Z,75.30
2017-09-04T22:42:57.309Z,75.50
2017-09-04T22:45:26.168Z,75.60
2017-09-04T22:47:53.710Z,75.80
2017-09-04T22:50:21.545Z,76.00
2017-09-04T22:52:49.089Z,76.10
2017-09-04T22:55:16.634Z,76.30
2017-09-04T22:57:44.210Z,76.50
2017-09-04T23:00:11.756Z,76.60
2017-09-04T23:02:39.905Z,76.90
2017-09-04T23:05:07.452Z,77.00
2017-09-04T23:07:34.988Z,77.20
2017-09-04T23:10:02.568Z,77.60
2017-09-04T23:12:30.145Z,77.70
2017-09-04T23:14:57.691Z,78.00
2017-09-04T23:17:25.490Z,78.20
2017-09-04T23:19:53.025Z,78.40
2017-09-04T23:22:20.560Z,78.60
2017-09-04T23:24:48.141Z,78.60
2017-09-04T23:27:15.679Z,78.70
2017-09-04T23:29:43.269Z,78.70
2017-09-04T23:32:10.807Z,78.80
2017-09-04T23:34:38.399Z,78.80
2017-09-04T23:37:05.938Z,78.90
2017-09-04T23:39:33.929Z,78.90
2017-09-04T23:42:01.463Z,79.00
2017-09-04T23:44:29.007Z,78.90
2017-09-04T23:46:56.602Z,78.80
2017-09-04T23:49:24.348Z,78.80
2017-09-04T23:51:51.885Z,78.70
2017-09-04T23:54:19.458Z,78.80
2017-09-04T23:56:46.996Z,78.70
2017-09-04T23:59:14.584Z,78.70
